Time;durP1;ratioP1;P1;durP2;ratioP2;P2;SDS_P1;SDS_P2;PMS_P1;PMS_P2;Temp;Humidity;BMP_temperature;BMP_pressure;BME280_temperature;BME280_humidity;BME280_pressure;Samples;Min_cycle;Max_cycle;Signal;HPM_P1;HPM_P2
2022/03/18 00:00:54;;;;;;;39.88;22.58;;;;;;;;;;4990146;28;20046;-84
2022/03/18 00:03:21;;;;;;;41.60;23.52;;;;;;;;;;4986901;28;20062;-84
2022/03/18 00:05:51;;;;;;;47.10;25.33;;;;;;;;;;4986644;28;20463;-84
2022/03/18 00:08:18;;;;;;;42.72;23.70;;;;;;;;;;4969579;28;20117;-83
2022/03/18 00:10:46;;;;;;;42.78;23.08;;;;;;;;;;4970195;28;20074;-84
2022/03/18 00:13:15;;;;;;;46.63;26.23;;;;;;;;;;5002922;28;20064;-83
2022/03/18 00:15:42;;;;;;;43.08;23.83;;;;;;;;;;5000174;28;20041;-83
2022/03/18 00:18:11;;;;;;;42.63;24.13;;;;;;;;;;4992355;28;20100;-83
2022/03/18 00:20:39;;;;;;;45.47;25.02;;;;;;;;;;4995015;28;20077;-87
2022/03/18 00:23:07;;;;;;;47.15;24.15;;;;;;;;;;4959544;28;20120;-82
2022/03/18 00:25:34;;;;;;;48.75;26.80;;;;;;;;;;4977029;28;20046;-83
2022/03/18 00:28:01;;;;;;;40.95;24.00;;;;;;;;;;4994545;28;20050;-83
2022/03/18 00:30:32;;;;;;;46.42;25.88;;;;;;;;;;4977208;28;20054;-83
2022/03/18 00:32:59;;;;;;;48.58;25.08;;;;;;;;;;4994739;28;20049;-84
2022/03/18 00:35:28;;;;;;;42.50;24.98;;;;;;;;;;4976923;28;20101;-83
2022/03/18 00:37:56;;;;;;;41.83;23.92;;;;;;;;;;4995477;28;20450;-84
2022/03/18 00:40:22;;;;;;;50.95;28.55;;;;;;;;;;4970114;28;20074;-83
2022/03/18 00:42:50;;;;;;;44.58;25.30;;;;;;;;;;4993084;28;20069;-83
2022/03/18 00:45:17;;;;;;;42.85;24.05;;;;;;;;;;4971529;28;20054;-84
2022/03/18 00:53:15;;;;;;;45.47;24.50;;;;;;;;;;4990790;28;20383;-83
2022/03/18 00:55:42;;;;;;;47.60;24.40;;;;;;;;;;4994466;28;20206;-84
2022/03/18 00:58:10;;;;;;;46.42;25.40;;;;;;;;;;4972121;28;20042;-83
2022/03/18 01:00:38;;;;;;;47.90;26.83;;;;;;;;;;4957845;28;20069;-84
2022/03/18 01:03:27;;;;;;;40.55;24.23;;;;;;;;;;4960130;28;20088;-83
2022/03/18 01:05:57;;;;;;;44.92;24.13;;;;;;;;;;4995351;28;20494;-82
2022/03/18 01:08:25;;;;;;;44.53;24.67;;;;;;;;;;4991585;28;20104;-84
2022/03/18 01:10:53;;;;;;;42.97;23.48;;;;;;;;;;4974330;28;20074;-83
2022/03/18 01:13:21;;;;;;;36.92;21.05;;;;;;;;;;4992219;28;20047;-83
2022/03/18 01:15:48;;;;;;;43.33;23.88;;;;;;;;;;4989491;28;20085;-83
2022/03/18 01:18:15;;;;;;;41.47;23.27;;;;;;;;;;4984807;28;20070;-82
2022/03/18 01:20:43;;;;;;;39.15;22.17;;;;;;;;;;4980143;28;20185;-82
2022/03/18 01:23:15;;;;;;;40.67;22.30;;;;;;;;;;4976949;28;20049;-82
2022/03/18 01:25:43;;;;;;;44.38;25.45;;;;;;;;;;4976516;28;20042;-82
2022/03/18 01:28:10;;;;;;;46.75;26.08;;;;;;;;;;4994793;28;20100;-83
2022/03/18 01:30:37;;;;;;;49.67;25.65;;;;;;;;;;4992647;28;20077;-85
2022/03/18 01:33:04;;;;;;;43.72;25.20;;;;;;;;;;4947896;28;20037;-83
2022/03/18 01:35:31;;;;;;;47.78;26.52;;;;;;;;;;4992976;28;20042;-84
2022/03/18 01:37:58;;;;;;;44.05;23.50;;;;;;;;;;4995599;28;20085;-82
2022/03/18 01:40:27;;;;;;;46.70;24.17;;;;;;;;;;4995174;28;20038;-83
2022/03/18 01:43:01;;;;;;;43.50;24.77;;;;;;;;;;4991057;28;20046;-82
2022/03/18 01:45:29;;;;;;;46.58;25.05;;;;;;;;;;4962621;28;20434;-82
2022/03/18 01:47:56;;;;;;;45.72;25.25;;;;;;;;;;4980440;28;20088;-82
2022/03/18 01:50:23;;;;;;;40.60;24.63;;;;;;;;;;4968217;28;20058;-82
2022/03/18 01:52:51;;;;;;;47.15;24.60;;;;;;;;;;4975907;28;20242;-83
2022/03/18 01:55:19;;;;;;;49.00;26.20;;;;;;;;;;4991154;28;20137;-84
2022/03/18 01:57:48;;;;;;;39.53;22.48;;;;;;;;;;4976980;28;20054;-82
2022/03/18 02:00:21;;;;;;;42.17;23.77;;;;;;;;;;4993247;28;20050;-82
2022/03/18 02:02:50;;;;;;;46.58;24.90;;;;;;;;;;5004295;28;20070;-82
2022/03/18 02:05:17;;;;;;;45.25;27.67;;;;;;;;;;4995890;28;20444;-82
2022/03/18 02:07:46;;;;;;;42.10;23.30;;;;;;;;;;4997591;28;20080;-84
2022/03/18 02:10:13;;;;;;;45.05;23.77;;;;;;;;;;4961856;28;20055;-83
2022/03/18 02:12:41;;;;;;;39.45;22.60;;;;;;;;;;4991223;28;20078;-82
2022/03/18 02:15:11;;;;;;;45.13;25.48;;;;;;;;;;4975644;28;20091;-82
2022/03/18 02:17:39;;;;;;;43.03;23.65;;;;;;;;;;4999885;28;20105;-82
2022/03/18 02:20:08;;;;;;;47.00;24.25;;;;;;;;;;4992707;28;20487;-82
2022/03/18 02:22:43;;;;;;;44.55;23.67;;;;;;;;;;4984136;28;20078;-83
2022/03/18 02:25:14;;;;;;;48.40;26.08;;;;;;;;;;4982217;28;20082;-83
2022/03/18 02:27:42;;;;;;;41.20;23.73;;;;;;;;;;5002004;28;20069;-83
2022/03/18 02:30:11;;;;;;;45.03;25.20;;;;;;;;;;4991812;28;20062;-83
2022/03/18 02:32:38;;;;;;;42.22;23.65;;;;;;;;;;4975005;28;20438;-83
2022/03/18 02:35:06;;;;;;;44.60;24.25;;;;;;;;;;4973039;28;20062;-84
2022/03/18 02:37:33;;;;;;;43.58;24.40;;;;;;;;;;4970710;28;20097;-83
2022/03/18 02:40:04;;;;;;;42.80;23.40;;;;;;;;;;4972036;28;20438;-86
2022/03/18 02:42:31;;;;;;;43.55;23.60;;;;;;;;;;4992676;28;20078;-83
2022/03/18 02:45:03;;;;;;;44.92;25.75;;;;;;;;;;4969999;28;20034;-84
2022/03/18 02:47:33;;;;;;;44.75;25.42;;;;;;;;;;4976066;28;20046;-84
2022/03/18 02:50:00;;;;;;;41.67;22.83;;;;;;;;;;4992942;28;20129;-84
2022/03/18 02:52:28;;;;;;;47.50;25.70;;;;;;;;;;4979585;28;20038;-84
2022/03/18 02:54:55;;;;;;;44.42;25.02;;;;;;;;;;4964933;28;20139;-84
2022/03/18 02:57:28;;;;;;;43.47;23.27;;;;;;;;;;4980481;28;20054;-84
2022/03/18 02:59:56;;;;;;;43.88;26.15;;;;;;;;;;4993387;28;20499;-85
2022/03/18 03:02:23;;;;;;;42.65;24.48;;;;;;;;;;4978705;28;20066;-84
2022/03/18 03:10:18;;;;;;;45.92;24.48;;;;;;;;;;4989061;28;20053;-84
2022/03/18 03:12:47;;;;;;;44.30;24.70;;;;;;;;;;4992218;28;20080;-84
2022/03/18 03:15:17;;;;;;;42.47;22.83;;;;;;;;;;4955091;28;20129;-84
2022/03/18 03:17:44;;;;;;;44.80;24.85;;;;;;;;;;4967321;28;20045;-86
2022/03/18 03:20:15;;;;;;;41.60;23.65;;;;;;;;;;4988558;28;20463;-84
2022/03/18 03:22:42;;;;;;;41.15;21.77;;;;;;;;;;4985040;28;20043;-85
2022/03/18 03:25:10;;;;;;;44.88;23.75;;;;;;;;;;4989560;28;20502;-84
2022/03/18 03:27:39;;;;;;;46.85;26.05;;;;;;;;;;4989947;28;20127;-84
2022/03/18 03:30:11;;;;;;;40.90;22.08;;;;;;;;;;4957685;28;20498;-85
2022/03/18 03:32:38;;;;;;;43.60;23.63;;;;;;;;;;4985180;28;20065;-85
2022/03/18 03:35:08;;;;;;;43.25;24.25;;;;;;;;;;4987955;28;20129;-86
2022/03/18 03:37:37;;;;;;;48.53;23.55;;;;;;;;;;4990656;28;20397;-86
2022/03/18 03:40:05;;;;;;;40.65;23.02;;;;;;;;;;4988469;28;20065;-84
2022/03/18 03:42:33;;;;;;;45.45;23.70;;;;;;;;;;4974660;28;20085;-83
2022/03/18 03:45:00;;;;;;;49.65;24.60;;;;;;;;;;4969347;28;20104;-84
2022/03/18 03:47:29;;;;;;;44.92;24.35;;;;;;;;;;4987853;28;20448;-84
2022/03/18 03:49:57;;;;;;;47.20;25.60;;;;;;;;;;4987224;28;20070;-84
2022/03/18 03:52:24;;;;;;;43.92;23.27;;;;;;;;;;4971570;28;20459;-84
2022/03/18 03:54:51;;;;;;;42.97;22.65;;;;;;;;;;4970952;28;20136;-84
2022/03/18 03:57:21;;;;;;;42.05;24.88;;;;;;;;;;4986341;28;20080;-83
2022/03/18 03:59:48;;;;;;;40.63;23.10;;;;;;;;;;4962577;28;20070;-82
2022/03/18 04:02:15;;;;;;;44.58;22.08;;;;;;;;;;4991880;28;20074;-82
2022/03/18 04:04:43;;;;;;;44.58;24.98;;;;;;;;;;4970999;28;20138;-85
2022/03/18 04:07:13;;;;;;;42.13;22.25;;;;;;;;;;4965217;28;20101;-84
2022/03/18 04:09:40;;;;;;;45.42;23.23;;;;;;;;;;4957065;28;20077;-87
2022/03/18 04:12:08;;;;;;;51.90;24.85;;;;;;;;;;4971039;28;20066;-84
2022/03/18 04:14:38;;;;;;;41.40;22.50;;;;;;;;;;4970802;28;20124;-83
2022/03/18 04:17:05;;;;;;;40.67;22.15;;;;;;;;;;4988444;28;20061;-83
2022/03/18 04:19:36;;;;;;;42.78;23.80;;;;;;;;;;4991424;28;20042;-83
2022/03/18 04:22:05;;;;;;;44.95;23.38;;;;;;;;;;4987692;28;20086;-83
2022/03/18 04:24:33;;;;;;;51.45;24.83;;;;;;;;;;4990721;28;20073;-82
2022/03/18 04:27:00;;;;;;;44.08;22.98;;;;;;;;;;4972500;28;20046;-83
2022/03/18 04:29:31;;;;;;;39.47;21.92;;;;;;;;;;4989338;28;20069;-82
2022/03/18 04:31:58;;;;;;;43.70;23.40;;;;;;;;;;4973612;28;20046;-83
2022/03/18 04:34:25;;;;;;;42.65;22.02;;;;;;;;;;4994679;28;20445;-82
2022/03/18 04:36:53;;;;;;;46.05;24.33;;;;;;;;;;4990941;28;20526;-83
2022/03/18 04:39:22;;;;;;;48.15;25.05;;;;;;;;;;4976044;28;20053;-83
2022/03/18 04:41:50;;;;;;;45.45;24.77;;;;;;;;;;4988432;28;20137;-82
2022/03/18 04:44:17;;;;;;;44.83;24.17;;;;;;;;;;4973727;28;20077;-82
2022/03/18 04:46:47;;;;;;;54.50;27.92;;;;;;;;;;4976413;28;20089;-85
2022/03/18 04:49:16;;;;;;;42.22;24.25;;;;;;;;;;4985359;28;20038;-82
2022/03/18 04:51:43;;;;;;;40.92;23.80;;;;;;;;;;4995529;28;20569;-84
2022/03/18 04:54:11;;;;;;;44.08;23.25;;;;;;;;;;4993161;28;20102;-82
2022/03/18 04:59:24;;;;;;;42.60;23.45;;;;;;;;;;4994103;28;20081;-82
2022/03/18 05:01:51;;;;;;;41.78;23.02;;;;;;;;;;4997443;28;20046;-82
2022/03/18 05:04:20;;;;;;;40.17;23.70;;;;;;;;;;4979560;28;20057;-82
2022/03/18 05:06:49;;;;;;;48.53;25.75;;;;;;;;;;4979407;28;20051;-82
2022/03/18 05:09:17;;;;;;;49.35;26.02;;;;;;;;;;4965355;28;20046;-82
2022/03/18 05:11:46;;;;;;;48.67;25.58;;;;;;;;;;4977244;28;20502;-82
2022/03/18 05:14:14;;;;;;;51.50;26.58;;;;;;;;;;5000093;28;20089;-82
2022/03/18 05:16:42;;;;;;;44.33;23.20;;;;;;;;;;4994068;28;20077;-83
2022/03/18 05:19:10;;;;;;;47.67;25.63;;;;;;;;;;4961188;28;20058;-83
2022/03/18 05:21:39;;;;;;;50.75;25.60;;;;;;;;;;4976797;28;20073;-83
2022/03/18 05:24:07;;;;;;;44.80;26.77;;;;;;;;;;4979416;28;20104;-84
2022/03/18 05:26:36;;;;;;;51.55;27.90;;;;;;;;;;4989996;28;20494;-83
2022/03/18 05:29:07;;;;;;;49.42;27.98;;;;;;;;;;4992787;28;20050;-83
2022/03/18 05:31:35;;;;;;;48.92;27.60;;;;;;;;;;4974151;28;20049;-82
2022/03/18 05:34:02;;;;;;;50.35;28.20;;;;;;;;;;4975288;28;20049;-82
2022/03/18 05:36:29;;;;;;;52.83;28.02;;;;;;;;;;4992598;28;20463;-83
2022/03/18 05:38:57;;;;;;;53.97;28.75;;;;;;;;;;4993953;28;20137;-83
2022/03/18 05:41:24;;;;;;;51.67;29.13;;;;;;;;;;4975314;28;20066;-82
2022/03/18 05:43:51;;;;;;;58.33;29.63;;;;;;;;;;4994357;28;20042;-83
2022/03/18 05:46:20;;;;;;;52.10;27.55;;;;;;;;;;4996993;28;20122;-83
2022/03/18 05:48:48;;;;;;;54.92;28.55;;;;;;;;;;4999042;28;20265;-82
2022/03/18 05:51:15;;;;;;;50.53;28.88;;;;;;;;;;4977860;28;20046;-82
2022/03/18 05:53:42;;;;;;;55.53;29.27;;;;;;;;;;4995691;28;20034;-83
2022/03/18 05:58:54;;;;;;;54.28;29.98;;;;;;;;;;4990888;28;20049;-83
2022/03/18 06:01:23;;;;;;;50.38;28.20;;;;;;;;;;4977190;28;20266;-82
2022/03/18 06:03:51;;;;;;;51.22;27.85;;;;;;;;;;4992544;28;20655;-83
2022/03/18 06:06:18;;;;;;;51.05;29.17;;;;;;;;;;4991606;28;20104;-83
2022/03/18 06:14:15;;;;;;;55.95;29.70;;;;;;;;;;4990777;28;20119;-83
2022/03/18 06:16:44;;;;;;;56.78;29.73;;;;;;;;;;4975734;28;20038;-86
2022/03/18 06:19:11;;;;;;;60.33;32.08;;;;;;;;;;4992373;28;20035;-83
2022/03/18 06:21:39;;;;;;;61.78;30.83;;;;;;;;;;4993873;28;20121;-83
2022/03/18 06:24:09;;;;;;;54.80;29.58;;;;;;;;;;4978046;28;20081;-83
2022/03/18 06:26:37;;;;;;;54.78;29.00;;;;;;;;;;4975908;28;20114;-83
2022/03/18 06:29:05;;;;;;;50.50;28.00;;;;;;;;;;4995009;28;20319;-83
2022/03/18 06:31:32;;;;;;;51.05;28.13;;;;;;;;;;4992646;28;20425;-79
2022/03/18 06:34:01;;;;;;;53.17;29.38;;;;;;;;;;4984055;28;20057;-83
2022/03/18 06:36:30;;;;;;;54.13;29.55;;;;;;;;;;4995194;28;20089;-81
2022/03/18 06:38:58;;;;;;;53.60;29.55;;;;;;;;;;4973717;28;20069;-83
2022/03/18 06:41:25;;;;;;;61.15;30.05;;;;;;;;;;4993766;28;20089;-81
2022/03/18 06:43:52;;;;;;;54.53;28.65;;;;;;;;;;4996778;28;20461;-82
2022/03/18 06:46:19;;;;;;;58.88;29.00;;;;;;;;;;4995186;28;20077;-81
2022/03/18 06:48:46;;;;;;;57.35;30.45;;;;;;;;;;4981118;28;20038;-80
2022/03/18 06:51:21;;;;;;;58.45;29.92;;;;;;;;;;4974112;28;20459;-83
2022/03/18 06:53:47;;;;;;;62.97;31.98;;;;;;;;;;4996524;28;20066;-81
2022/03/18 06:56:14;;;;;;;54.03;30.48;;;;;;;;;;4996701;28;20069;-80
2022/03/18 06:58:42;;;;;;;89.57;43.60;;;;;;;;;;4992713;28;20476;-79
2022/03/18 07:01:11;;;;;;;113.40;48.13;;;;;;;;;;4992934;28;20354;-79
2022/03/18 07:03:38;;;;;;;125.38;53.33;;;;;;;;;;4976216;28;21062;-79
2022/03/18 07:06:06;;;;;;;95.47;42.35;;;;;;;;;;4998782;28;20089;-79
2022/03/18 07:08:34;;;;;;;85.28;40.15;;;;;;;;;;5004154;28;20424;-79
2022/03/18 07:11:00;;;;;;;100.80;46.97;;;;;;;;;;4999292;28;20494;-79
2022/03/18 07:13:27;;;;;;;71.50;37.63;;;;;;;;;;4999680;28;20112;-79
2022/03/18 07:15:54;;;;;;;57.78;32.20;;;;;;;;;;4991753;28;20051;-81
2022/03/18 07:18:20;;;;;;;60.08;30.40;;;;;;;;;;4993066;28;20070;-80
2022/03/18 07:20:46;;;;;;;54.70;28.02;;;;;;;;;;5001490;28;20100;-80
2022/03/18 07:23:14;;;;;;;55.05;27.42;;;;;;;;;;4992318;28;20376;-79
2022/03/18 07:25:44;;;;;;;51.58;27.92;;;;;;;;;;4993790;28;20117;-79
2022/03/18 07:28:12;;;;;;;50.70;26.30;;;;;;;;;;4987962;28;20073;-79
2022/03/18 07:30:40;;;;;;;50.67;26.25;;;;;;;;;;4997510;28;20129;-81
2022/03/18 07:33:07;;;;;;;47.20;25.15;;;;;;;;;;4997729;28;20454;-81
2022/03/18 07:35:35;;;;;;;49.97;25.52;;;;;;;;;;4991493;28;20077;-80
2022/03/18 07:38:02;;;;;;;45.20;25.95;;;;;;;;;;4986773;28;20446;-79
2022/03/18 07:40:29;;;;;;;45.92;24.88;;;;;;;;;;4987037;28;20041;-80
2022/03/18 07:43:00;;;;;;;43.72;24.92;;;;;;;;;;4987566;28;20466;-79
2022/03/18 07:45:28;;;;;;;50.53;25.98;;;;;;;;;;4987261;28;20471;-80
2022/03/18 07:47:59;;;;;;;47.45;24.77;;;;;;;;;;4992969;28;20073;-79
2022/03/18 07:50:28;;;;;;;43.60;24.70;;;;;;;;;;4996970;28;20070;-81
2022/03/18 07:52:57;;;;;;;45.08;25.48;;;;;;;;;;4996885;28;20101;-81
2022/03/18 07:55:28;;;;;;;46.85;24.63;;;;;;;;;;4993536;28;20070;-81
2022/03/18 07:57:55;;;;;;;41.60;23.50;;;;;;;;;;4991279;28;20093;-79
2022/03/18 08:00:23;;;;;;;44.72;23.35;;;;;;;;;;5000990;28;20557;-78
2022/03/18 08:02:51;;;;;;;41.97;23.80;;;;;;;;;;4990556;28;20087;-79
2022/03/18 08:05:18;;;;;;;45.08;23.80;;;;;;;;;;4999747;28;20057;-80
2022/03/18 08:07:46;;;;;;;41.58;23.65;;;;;;;;;;4999516;28;20078;-82
2022/03/18 08:10:14;;;;;;;42.42;23.13;;;;;;;;;;4996986;28;20046;-82
2022/03/18 08:12:42;;;;;;;47.70;23.67;;;;;;;;;;4989117;28;20074;-80
2022/03/18 08:15:11;;;;;;;45.10;23.38;;;;;;;;;;4993988;28;20061;-80
2022/03/18 08:17:40;;;;;;;38.28;22.40;;;;;;;;;;4993261;28;20195;-79
2022/03/18 08:20:09;;;;;;;39.22;22.98;;;;;;;;;;5000868;28;20042;-79
2022/03/18 08:22:36;;;;;;;46.05;23.30;;;;;;;;;;4988447;28;20057;-81
2022/03/18 08:25:03;;;;;;;38.33;22.23;;;;;;;;;;4995321;28;20074;-82
2022/03/18 08:27:29;;;;;;;41.22;23.45;;;;;;;;;;4988073;28;20046;-79
2022/03/18 08:29:59;;;;;;;45.70;25.48;;;;;;;;;;4987542;28;20499;-79
2022/03/18 08:32:26;;;;;;;44.85;23.77;;;;;;;;;;4992381;28;20038;-79
2022/03/18 08:34:55;;;;;;;39.80;22.80;;;;;;;;;;4993950;28;20097;-78
2022/03/18 08:37:56;;;;;;;42.67;23.48;;;;;;;;;;4994828;28;20074;-80
2022/03/18 08:40:10;;;;;;;42.17;22.80;;;;;;;;;;4990417;28;20042;-76
2022/03/18 08:42:37;;;;;;;47.45;24.70;;;;;;;;;;4995941;28;20042;-79
2022/03/18 08:45:04;;;;;;;43.97;25.33;;;;;;;;;;4997115;28;20615;-78
2022/03/18 08:47:30;;;;;;;42.03;24.38;;;;;;;;;;5003022;28;20105;-78
2022/03/18 08:49:58;;;;;;;42.13;24.15;;;;;;;;;;4997428;28;20129;-78
2022/03/18 08:52:25;;;;;;;39.40;23.70;;;;;;;;;;5002227;28;20080;-80
2022/03/18 08:54:52;;;;;;;40.83;23.00;;;;;;;;;;4992877;28;20077;-79
2022/03/18 08:57:20;;;;;;;41.58;22.95;;;;;;;;;;4967721;28;20375;-78
2022/03/18 08:59:48;;;;;;;39.08;24.23;;;;;;;;;;4992163;28;20102;-77
2022/03/18 09:02:15;;;;;;;38.55;22.05;;;;;;;;;;4994328;28;20137;-79
2022/03/18 09:04:42;;;;;;;40.17;22.85;;;;;;;;;;4995517;28;20089;-79
2022/03/18 09:07:11;;;;;;;42.25;23.90;;;;;;;;;;4995322;28;20056;-80
2022/03/18 09:09:38;;;;;;;39.90;22.55;;;;;;;;;;4982203;28;20042;-80
2022/03/18 09:12:06;;;;;;;40.55;24.52;;;;;;;;;;4961619;28;20056;-80
2022/03/18 09:14:34;;;;;;;44.08;23.13;;;;;;;;;;4978205;28;20070;-80
2022/03/18 09:17:01;;;;;;;40.65;24.20;;;;;;;;;;4979391;28;20106;-80
2022/03/18 09:19:28;;;;;;;38.58;23.23;;;;;;;;;;4998688;28;20038;-78
2022/03/18 09:21:55;;;;;;;40.15;22.98;;;;;;;;;;5000693;28;20420;-78
2022/03/18 09:24:23;;;;;;;39.13;22.83;;;;;;;;;;4986567;28;20074;-78
2022/03/18 09:26:49;;;;;;;39.83;23.98;;;;;;;;;;4995180;28;20066;-79
2022/03/18 09:29:16;;;;;;;41.13;25.50;;;;;;;;;;4992224;28;20130;-78
2022/03/18 09:31:42;;;;;;;44.42;22.83;;;;;;;;;;4991972;28;20443;-79
2022/03/18 09:34:09;;;;;;;42.78;25.67;;;;;;;;;;4993468;28;20069;-80
2022/03/18 09:36:36;;;;;;;41.05;25.00;;;;;;;;;;4998173;28;20077;-78
2022/03/18 09:39:04;;;;;;;41.70;24.35;;;;;;;;;;4981650;28;20066;-81
2022/03/18 09:41:32;;;;;;;40.35;24.20;;;;;;;;;;4996369;28;20101;-79
2022/03/18 09:43:59;;;;;;;38.42;24.30;;;;;;;;;;5011196;28;20085;-81
2022/03/18 09:46:27;;;;;;;43.55;25.23;;;;;;;;;;4980681;28;20038;-80
2022/03/18 09:48:55;;;;;;;42.80;25.25;;;;;;;;;;5003553;28;20062;-80
2022/03/18 09:51:22;;;;;;;42.30;23.65;;;;;;;;;;4998811;28;20085;-80
2022/03/18 09:53:49;;;;;;;45.88;26.70;;;;;;;;;;5012793;28;20103;-79
2022/03/18 09:56:17;;;;;;;44.13;25.48;;;;;;;;;;4987056;28;20069;-81
2022/03/18 09:58:46;;;;;;;45.80;26.73;;;;;;;;;;5002920;28;20078;-82
2022/03/18 10:01:13;;;;;;;42.65;25.17;;;;;;;;;;5000606;28;20034;-79
2022/03/18 10:03:41;;;;;;;47.70;26.85;;;;;;;;;;4997007;28;20106;-83
2022/03/18 10:06:11;;;;;;;45.83;26.73;;;;;;;;;;5001083;28;20074;-82
2022/03/18 10:08:53;;;;;;;43.22;25.90;;;;;;;;;;4999327;28;20096;-83
2022/03/18 10:11:24;;;;;;;42.88;25.33;;;;;;;;;;4970085;28;20294;-80
2022/03/18 10:13:54;;;;;;;42.60;26.13;;;;;;;;;;5002754;28;20477;-80
2022/03/18 10:16:35;;;;;;;41.20;24.85;;;;;;;;;;4990730;28;20395;-81
2022/03/18 10:19:02;;;;;;;42.33;25.52;;;;;;;;;;4995757;28;20447;-80
2022/03/18 10:21:29;;;;;;;43.78;27.80;;;;;;;;;;4994192;28;20074;-79
2022/03/18 10:24:10;;;;;;;45.85;25.83;;;;;;;;;;5003539;28;20048;-80
2022/03/18 10:26:37;;;;;;;44.17;26.25;;;;;;;;;;4996571;28;20066;-81
2022/03/18 10:29:11;;;;;;;41.80;25.33;;;;;;;;;;5000653;28;20129;-81
2022/03/18 10:31:39;;;;;;;40.17;25.40;;;;;;;;;;5002097;28;20038;-81
2022/03/18 10:37:08;;;;;;;39.10;24.20;;;;;;;;;;4999030;28;20096;-80
2022/03/18 10:39:37;;;;;;;39.75;25.67;;;;;;;;;;4996417;28;20355;-79
2022/03/18 10:42:06;;;;;;;43.58;26.52;;;;;;;;;;4998704;28;20045;-81
2022/03/18 10:44:51;;;;;;;41.65;26.05;;;;;;;;;;5000031;28;20058;-79
2022/03/18 10:47:32;;;;;;;42.97;26.75;;;;;;;;;;5001111;28;20076;-81
2022/03/18 10:50:15;;;;;;;42.83;26.58;;;;;;;;;;5000943;28;20053;-84
2022/03/18 10:53:01;;;;;;;41.30;24.92;;;;;;;;;;4996023;28;20050;-78
2022/03/18 10:55:39;;;;;;;40.80;25.50;;;;;;;;;;4970755;28;20116;-83
2022/03/18 10:58:11;;;;;;;43.28;27.40;;;;;;;;;;4976150;28;20060;-83
2022/03/18 11:00:41;;;;;;;44.22;25.77;;;;;;;;;;5002804;28;20130;-80
2022/03/18 11:03:08;;;;;;;40.17;26.33;;;;;;;;;;4995329;28;20042;-80
2022/03/18 11:05:37;;;;;;;45.75;26.50;;;;;;;;;;4991251;28;20054;-81
2022/03/18 11:08:05;;;;;;;40.22;27.20;;;;;;;;;;5002311;28;20073;-79
2022/03/18 11:13:22;;;;;;;40.75;25.75;;;;;;;;;;4989430;28;20494;-81
2022/03/18 11:15:50;;;;;;;38.63;24.00;;;;;;;;;;4988092;28;20069;-82
2022/03/18 11:18:19;;;;;;;38.65;25.85;;;;;;;;;;4987570;28;20110;-82
2022/03/18 11:20:45;;;;;;;42.05;27.23;;;;;;;;;;4987497;28;20089;-85
2022/03/18 11:23:17;;;;;;;40.05;24.95;;;;;;;;;;4989639;28;20312;-81
2022/03/18 11:25:44;;;;;;;38.60;25.13;;;;;;;;;;4988146;28;20054;-85
2022/03/18 11:28:20;;;;;;;39.17;25.77;;;;;;;;;;4988550;28;20236;-79
2022/03/18 11:30:49;;;;;;;43.30;25.33;;;;;;;;;;4986299;28;20510;-79
2022/03/18 11:33:22;;;;;;;34.63;23.10;;;;;;;;;;4993159;28;20069;-79
2022/03/18 11:36:17;;;;;;;35.35;22.08;;;;;;;;;;4990738;28;20463;-78
2022/03/18 11:39:02;;;;;;;34.45;22.92;;;;;;;;;;4991109;28;20109;-78
2022/03/18 11:41:45;;;;;;;40.15;24.65;;;;;;;;;;4993498;28;20046;-78
2022/03/18 11:44:42;;;;;;;40.92;24.02;;;;;;;;;;4992386;28;20089;-78
2022/03/18 11:47:43;;;;;;;38.80;23.98;;;;;;;;;;4992181;28;20038;-78
2022/03/18 11:50:39;;;;;;;39.17;23.88;;;;;;;;;;4995073;28;20046;-77
2022/03/18 11:53:07;;;;;;;39.83;23.77;;;;;;;;;;5002904;28;20046;-77
2022/03/18 11:55:33;;;;;;;38.38;24.20;;;;;;;;;;4993530;28;20043;-78
2022/03/18 11:58:00;;;;;;;32.83;21.55;;;;;;;;;;4991253;28;20066;-77
2022/03/18 12:00:43;;;;;;;35.03;21.95;;;;;;;;;;4993197;28;20070;-77
2022/03/18 12:03:19;;;;;;;30.85;19.90;;;;;;;;;;4990272;28;20073;-81
2022/03/18 12:05:54;;;;;;;30.83;20.23;;;;;;;;;;4989764;28;20117;-80
2022/03/18 12:08:56;;;;;;;30.90;19.17;;;;;;;;;;4993732;28;20443;-81
2022/03/18 12:11:31;;;;;;;34.75;20.95;;;;;;;;;;4996987;28;20089;-79
2022/03/18 12:13:58;;;;;;;34.70;20.33;;;;;;;;;;4995008;28;20066;-79
2022/03/18 12:16:24;;;;;;;33.00;21.42;;;;;;;;;;4996550;28;20482;-79
2022/03/18 12:18:58;;;;;;;31.05;20.38;;;;;;;;;;5000992;28;20077;-78
2022/03/18 12:21:39;;;;;;;37.47;22.45;;;;;;;;;;5017980;28;20046;-78
2022/03/18 12:24:08;;;;;;;32.75;21.00;;;;;;;;;;5006355;28;20048;-78
2022/03/18 12:26:35;;;;;;;31.77;21.08;;;;;;;;;;4998002;28;20070;-79
2022/03/18 12:29:02;;;;;;;36.00;23.40;;;;;;;;;;4998751;28;20073;-78
2022/03/18 12:31:29;;;;;;;34.35;20.25;;;;;;;;;;5003367;28;20069;-79
2022/03/18 12:34:02;;;;;;;34.63;22.67;;;;;;;;;;4991789;28;20066;-80
2022/03/18 12:36:29;;;;;;;36.20;21.85;;;;;;;;;;4997737;28;20101;-79
2022/03/18 12:39:13;;;;;;;34.45;22.60;;;;;;;;;;4998089;28;20066;-79
2022/03/18 12:41:41;;;;;;;32.97;20.50;;;;;;;;;;5000577;28;20042;-80
2022/03/18 12:44:07;;;;;;;34.60;21.75;;;;;;;;;;5000049;28;20438;-79
2022/03/18 12:46:34;;;;;;;32.88;21.80;;;;;;;;;;5000828;28;20463;-79
2022/03/18 12:49:04;;;;;;;36.28;22.15;;;;;;;;;;5000340;28;20074;-79
2022/03/18 12:51:31;;;;;;;31.15;22.10;;;;;;;;;;5000282;28;20044;-79
2022/03/18 12:53:58;;;;;;;30.23;20.90;;;;;;;;;;4997271;28;20046;-79
2022/03/18 12:56:29;;;;;;;31.13;20.80;;;;;;;;;;4994524;28;20074;-81
2022/03/18 12:58:56;;;;;;;33.67;20.02;;;;;;;;;;4993118;28;20129;-81
2022/03/18 13:01:22;;;;;;;28.08;19.58;;;;;;;;;;4993368;28;20132;-82
2022/03/18 13:03:50;;;;;;;26.60;18.20;;;;;;;;;;4993448;28;20387;-84
2022/03/18 13:06:20;;;;;;;29.00;19.70;;;;;;;;;;4993377;28;20494;-83
2022/03/18 13:08:47;;;;;;;26.77;18.25;;;;;;;;;;4994114;28;20046;-83
2022/03/18 13:11:14;;;;;;;28.10;18.02;;;;;;;;;;4993112;28;20074;-82
2022/03/18 13:13:46;;;;;;;27.60;18.88;;;;;;;;;;4994199;28;20070;-80
2022/03/18 13:16:13;;;;;;;30.38;20.15;;;;;;;;;;4995110;28;20418;-79
2022/03/18 13:18:49;;;;;;;30.42;18.77;;;;;;;;;;4994936;28;20085;-80
2022/03/18 13:21:17;;;;;;;22.52;17.08;;;;;;;;;;4992900;28;20070;-83
2022/03/18 13:23:45;;;;;;;26.35;17.10;;;;;;;;;;4993051;28;20070;-82
2022/03/18 13:26:13;;;;;;;24.38;16.52;;;;;;;;;;4996062;28;20046;-80
2022/03/18 13:28:40;;;;;;;24.77;15.85;;;;;;;;;;4988519;28;20085;-80
2022/03/18 13:33:53;;;;;;;20.73;14.45;;;;;;;;;;4994166;28;20150;-80
2022/03/18 13:36:28;;;;;;;22.48;15.52;;;;;;;;;;4994806;28;20093;-79
2022/03/18 13:38:55;;;;;;;23.67;16.55;;;;;;;;;;4997880;28;20055;-80
2022/03/18 13:41:22;;;;;;;22.75;15.20;;;;;;;;;;4995437;28;20062;-79
2022/03/18 13:43:54;;;;;;;19.67;14.75;;;;;;;;;;4994832;28;20109;-80
2022/03/18 13:46:24;;;;;;;20.30;14.55;;;;;;;;;;4995263;28;20065;-80
2022/03/18 13:48:54;;;;;;;21.02;14.07;;;;;;;;;;4993859;28;20089;-80
2022/03/18 13:51:33;;;;;;;20.02;14.52;;;;;;;;;;4991177;28;20302;-81
2022/03/18 13:54:07;;;;;;;23.33;13.48;;;;;;;;;;4985554;28;20120;-81
2022/03/18 13:56:34;;;;;;;18.63;13.18;;;;;;;;;;4991778;28;20042;-81
2022/03/18 13:59:09;;;;;;;19.55;13.57;;;;;;;;;;4992049;28;20130;-81
2022/03/18 14:01:36;;;;;;;22.27;14.43;;;;;;;;;;4992892;28;20323;-80
2022/03/18 14:04:03;;;;;;;21.92;14.52;;;;;;;;;;4993856;28;20089;-81
2022/03/18 14:06:29;;;;;;;20.73;14.32;;;;;;;;;;4994282;28;20038;-81
2022/03/18 14:09:12;;;;;;;20.55;15.18;;;;;;;;;;5007239;28;20124;-80
2022/03/18 14:14:25;;;;;;;23.08;14.55;;;;;;;;;;4986255;28;20052;-82
2022/03/18 14:17:12;;;;;;;19.75;13.38;;;;;;;;;;4995450;28;20046;-80
2022/03/18 14:19:46;;;;;;;21.58;13.95;;;;;;;;;;4993758;28;20109;-83
2022/03/18 14:22:31;;;;;;;18.70;12.68;;;;;;;;;;4995090;28;20046;-80
2022/03/18 14:24:59;;;;;;;17.48;13.25;;;;;;;;;;4994329;28;20384;-80
2022/03/18 14:27:27;;;;;;;19.70;12.73;;;;;;;;;;4994973;28;20460;-80
2022/03/18 14:29:54;;;;;;;19.15;13.18;;;;;;;;;;4994319;28;20042;-80
2022/03/18 14:32:21;;;;;;;16.67;12.95;;;;;;;;;;4994703;28;20085;-80
2022/03/18 14:34:50;;;;;;;16.13;11.65;;;;;;;;;;4995426;28;20042;-79
2022/03/18 14:37:17;;;;;;;17.08;11.38;;;;;;;;;;5003465;28;20049;-80
2022/03/18 14:39:43;;;;;;;16.88;11.40;;;;;;;;;;5002188;28;20078;-82
2022/03/18 14:42:12;;;;;;;13.93;9.27;;;;;;;;;;4991486;28;20066;-83
2022/03/18 14:44:41;;;;;;;17.73;11.20;;;;;;;;;;4991853;28;20047;-82
2022/03/18 14:47:07;;;;;;;17.88;10.48;;;;;;;;;;4975733;28;20406;-81
2022/03/18 14:49:37;;;;;;;15.32;11.32;;;;;;;;;;4992179;28;20042;-80
2022/03/18 14:52:07;;;;;;;15.18;10.63;;;;;;;;;;4989580;28;20070;-80
2022/03/18 14:57:19;;;;;;;16.02;11.38;;;;;;;;;;4990832;28;20160;-81
2022/03/18 14:59:47;;;;;;;14.52;10.55;;;;;;;;;;4991029;28;20132;-85
2022/03/18 15:02:14;;;;;;;16.45;11.82;;;;;;;;;;4991032;28;20042;-83
2022/03/18 15:04:41;;;;;;;17.23;10.05;;;;;;;;;;4991390;28;20097;-84